Aérodrome :
LOGIN :

S'inscrire | Disclaimer

   EN    FR    IT 

 










Légende :    VFR   VFR Marginal   IFR   IFR Intensif   IFR Très Intensif
Visi : 
Plafond : 
>= 8 km
>= 3000ft
5 à 8 km
1000 à 3000 ft
1500m à 5 km
500 à 1000 ft
800 à 1500m
200 à 500 ft
< 800m
< 200 ft
Symboles :   Orages  Brouillard  Fortes neiges  Fortes précipitations  Vent > 20 kt
SIGMETs :   Divers  Orages  Givrage  Turbulence  Onde Orograph.  Cendres Volcan.






- Altitude de l'aérodrome : 353 ft
- Code IATA : ZAG


LDZA - Zagreb Pleso

DERNIER METAR :
  • 050100Z 05006KT 020V080 CAVOK 08/M02 Q1025 NOSIG

METARs EXPIRÉS :
  • 050030Z 04006KT CAVOK 06/M02 Q1025 NOSIG
  • 050000Z 04006KT CAVOK 06/M02 Q1025 NOSIG
  • 042330Z 03006KT CAVOK 06/M02 Q1025 NOSIG
  • 042300Z 03007KT CAVOK 07/M02 Q1025 NOSIG
  • 042230Z 03008KT CAVOK 07/M02 Q1025 NOSIG

TAF TAF LDZA
Valide du 05 à 00h jusqu'au 06 à 00h UTC


042325Z 0500/0600 03008KT CAVOK TX18/0513Z TN03/0504Z
TEMPO 0508/0516 04012KT
ATIS : +385 1 6-259-214



MET'MAP, la Météo Aéronautique d'un coup d'oeil ! - Copyright ORBIFLY Décembre 2007 - Disclaimer

ORBIFLY MET'MAP TEAM :

Programmation & Développement : Alexandra Zaïnal
Sur une idée originale de : Baudouin d'Aumeries
Assistance à la programmation : Marc-Olivier Méhu
Soutien technique & logistique : Manuel Goepfert

Contact : metmap@orbifly.com




SOURCES & CREDITS :

   NOAA